This is the latest recevied weather packets stored in our database for station/object KF6ILA. If no packets are shown the sender has not sent any weather packets the latest 10 day(s).
| Time | Temp. | Humidity | Pressure | Rain* | Wind** | Luminosity | Snow |
|---|---|---|---|---|---|---|---|
| 1787873562 | 31.67° C | 43% | 1015.5 hPa | 0 mm | - | 526 W/m² | - |
| 1787872968 | 32.22° C | 42% | 1015.4 hPa | 0 mm | - | - | - |
| 1787872671 | 32.22° C | 43% | 1015.4 hPa | 0 mm | - | 636 W/m² | - |
| 1787872077 | 31.67° C | 44% | 1015.4 hPa | 0 mm | - | 684 W/m² | - |
| 1787871483 | 31.11° C | 48% | 1015.8 hPa | 0 mm | - | 591 W/m² | - |
| 1787871186 | 30° C | 50% | 1015.9 hPa | 0 mm | - | 490 W/m² | - |
| 1787870889 | 30° C | 50% | 1016 hPa | 0 mm | - | 385 W/m² | - |
| 1787870592 | 30° C | 50% | 1016 hPa | 0 mm | - | 315 W/m² | - |
| 1787869998 | 30° C | 49% | 1016.1 hPa | 0 mm | - | 265 W/m² | - |
| 1787869404 | 30.56° C | 47% | 1016.2 hPa | 0 mm | - | 436 W/m² | - |
| 1787869107 | 31.11° C | 47% | 1016.2 hPa | 0 mm | - | 520 W/m² | - |
| 1787868810 | 31.11° C | 46% | 1016.3 hPa | 0 mm | - | 478 W/m² | - |
| 1787868513 | 31.11° C | 45% | 1016.3 hPa | 0 mm | - | 510 W/m² | - |
| 1787867919 | 30.56° C | 44% | 1016.6 hPa | 0 mm | - | 473 W/m² | - |
| 1787867325 | 30.56° C | 44% | 1016.6 hPa | 0 mm | - | 383 W/m² | - |
| 1787867028 | 31.11° C | 43% | 1016.6 hPa | 0 mm | - | 396 W/m² | - |
| 1787866731 | 31.67° C | 42% | 1016.7 hPa | 0 mm | - | 406 W/m² | - |
| 1787866137 | 33.33° C | 39% | 1016.7 hPa | 0 mm | - | 436 W/m² | - |
| 1787865840 | 33.89° C | 38% | 1016.7 hPa | 0 mm | - | 809 W/m² | - |
| 1787865246 | 32.78° C | 41% | 1016.9 hPa | 0 mm | - | 1078 W/m² | - |
| 1787864949 | 32.22° C | 40% | 1017 hPa | 0 mm | - | 930 W/m² | - |
| 1787864355 | 32.22° C | 37% | 1017 hPa | 0 mm | - | 548 W/m² | - |
| 1787864058 | 32.78° C | 36% | 1017.1 hPa | 0 mm | - | 473 W/m² | - |
| 1787863761 | 32.78° C | 35% | 1017.3 hPa | 0 mm | - | 434 W/m² | - |
| 1787863464 | 33.33° C | 35% | 1017.4 hPa | 0 mm | - | 508 W/m² | - |
* Rain latest hour (hover to see other rain measurements)
** Current wind speed in m/s (hover to see current wind gust speed)